sensor_id;sensor_type;location;lat;lon;timestamp;temperature;humidity
58554;DHT22;48119;53.218;6.576;2023-04-24T00:01:48;14.30;99.90
58554;DHT22;48119;53.218;6.576;2023-04-24T00:04:14;14.30;99.90
58554;DHT22;48119;53.218;6.576;2023-04-24T00:06:42;14.30;99.90
58554;DHT22;48119;53.218;6.576;2023-04-24T00:09:09;14.40;99.90
58554;DHT22;48119;53.218;6.576;2023-04-24T00:11:38;14.30;99.90
58554;DHT22;48119;53.218;6.576;2023-04-24T00:14:03;14.30;99.90
58554;DHT22;48119;53.218;6.576;2023-04-24T00:16:29;14.30;99.90
58554;DHT22;48119;53.218;6.576;2023-04-24T00:18:55;14.30;99.90
58554;DHT22;48119;53.218;6.576;2023-04-24T00:21:21;14.30;99.90
58554;DHT22;48119;53.218;6.576;2023-04-24T00:23:47;14.30;99.90
58554;DHT22;48119;53.218;6.576;2023-04-24T00:26:13;14.30;99.90
58554;DHT22;48119;53.218;6.576;2023-04-24T00:28:39;14.30;99.90
58554;DHT22;48119;53.218;6.576;2023-04-24T00:31:05;14.30;99.90
58554;DHT22;48119;53.218;6.576;2023-04-24T00:33:31;14.30;99.90
58554;DHT22;48119;53.218;6.576;2023-04-24T00:35:56;14.20;99.90
58554;DHT22;48119;53.218;6.576;2023-04-24T00:38:22;14.20;99.90
58554;DHT22;48119;53.218;6.576;2023-04-24T00:40:51;14.20;99.90
58554;DHT22;48119;53.218;6.576;2023-04-24T00:43:17;14.20;99.90
58554;DHT22;48119;53.218;6.576;2023-04-24T00:45:43;14.20;99.90
58554;DHT22;48119;53.218;6.576;2023-04-24T00:48:09;14.20;99.90
58554;DHT22;48119;53.218;6.576;2023-04-24T00:50:36;14.10;99.90
58554;DHT22;48119;53.218;6.576;2023-04-24T00:53:01;14.10;99.90
58554;DHT22;48119;53.218;6.576;2023-04-24T00:55:27;14.10;99.90
58554;DHT22;48119;53.218;6.576;2023-04-24T00:57:53;14.10;99.90
58554;DHT22;48119;53.218;6.576;2023-04-24T01:00:19;14.10;99.90
58554;DHT22;48119;53.218;6.576;2023-04-24T01:02:45;14.10;99.90
58554;DHT22;48119;53.218;6.576;2023-04-24T01:05:15;14.10;99.90
58554;DHT22;48119;53.218;6.576;2023-04-24T01:07:44;14.10;99.90
58554;DHT22;48119;53.218;6.576;2023-04-24T01:10:11;14.10;99.90
58554;DHT22;48119;53.218;6.576;2023-04-24T01:12:38;14.00;99.90
58554;DHT22;48119;53.218;6.576;2023-04-24T01:15:05;14.00;99.90
58554;DHT22;48119;53.218;6.576;2023-04-24T01:17:32;13.90;99.90
58554;DHT22;48119;53.218;6.576;2023-04-24T01:19:59;13.90;99.90
58554;DHT22;48119;53.218;6.576;2023-04-24T01:22:25;13.90;99.90
58554;DHT22;48119;53.218;6.576;2023-04-24T01:24:52;14.00;99.90
58554;DHT22;48119;53.218;6.576;2023-04-24T01:27:19;13.90;99.90
58554;DHT22;48119;53.218;6.576;2023-04-24T01:29:46;13.90;99.90
58554;DHT22;48119;53.218;6.576;2023-04-24T01:32:13;13.90;99.90
58554;DHT22;48119;53.218;6.576;2023-04-24T01:34:40;13.90;99.90
58554;DHT22;48119;53.218;6.576;2023-04-24T01:37:06;13.90;99.90
58554;DHT22;48119;53.218;6.576;2023-04-24T01:39:32;13.90;99.90
58554;DHT22;48119;53.218;6.576;2023-04-24T01:41:59;13.90;99.90
58554;DHT22;48119;53.218;6.576;2023-04-24T01:44:26;13.90;99.90
58554;DHT22;48119;53.218;6.576;2023-04-24T01:46:53;13.90;99.90
58554;DHT22;48119;53.218;6.576;2023-04-24T01:49:20;13.90;99.90
58554;DHT22;48119;53.218;6.576;2023-04-24T01:51:46;13.90;99.90
58554;DHT22;48119;53.218;6.576;2023-04-24T01:54:12;13.90;99.90
58554;DHT22;48119;53.218;6.576;2023-04-24T01:56:41;13.90;99.90
58554;DHT22;48119;53.218;6.576;2023-04-24T01:59:11;13.80;99.90
58554;DHT22;48119;53.218;6.576;2023-04-24T02:01:37;13.80;99.90
58554;DHT22;48119;53.218;6.576;2023-04-24T02:04:05;13.80;99.90
58554;DHT22;48119;53.218;6.576;2023-04-24T02:06:31;13.80;99.90
58554;DHT22;48119;53.218;6.576;2023-04-24T02:09:00;13.80;99.90
58554;DHT22;48119;53.218;6.576;2023-04-24T02:11:26;13.80;99.90
58554;DHT22;48119;53.218;6.576;2023-04-24T02:13:52;13.70;99.90
58554;DHT22;48119;53.218;6.576;2023-04-24T02:16:18;13.70;99.90
58554;DHT22;48119;53.218;6.576;2023-04-24T02:18:44;13.70;99.90
58554;DHT22;48119;53.218;6.576;2023-04-24T02:21:10;13.70;99.90
58554;DHT22;48119;53.218;6.576;2023-04-24T02:23:36;13.80;99.90
58554;DHT22;48119;53.218;6.576;2023-04-24T02:26:02;13.70;99.90
58554;DHT22;48119;53.218;6.576;2023-04-24T02:28:28;13.70;99.90
58554;DHT22;48119;53.218;6.576;2023-04-24T02:30:53;13.70;99.90
58554;DHT22;48119;53.218;6.576;2023-04-24T02:33:19;13.70;99.90
58554;DHT22;48119;53.218;6.576;2023-04-24T02:35:45;13.70;99.90
58554;DHT22;48119;53.218;6.576;2023-04-24T02:38:13;13.70;99.90
58554;DHT22;48119;53.218;6.576;2023-04-24T02:40:39;13.70;99.90
58554;DHT22;48119;53.218;6.576;2023-04-24T02:43:05;13.70;99.90
58554;DHT22;48119;53.218;6.576;2023-04-24T02:45:30;13.80;99.90
58554;DHT22;48119;53.218;6.576;2023-04-24T02:47:56;13.70;99.90
58554;DHT22;48119;53.218;6.576;2023-04-24T02:50:22;13.70;99.90
58554;DHT22;48119;53.218;6.576;2023-04-24T02:52:47;13.70;99.90
58554;DHT22;48119;53.218;6.576;2023-04-24T02:55:13;13.70;99.90
58554;DHT22;48119;53.218;6.576;2023-04-24T02:57:39;13.80;99.90
58554;DHT22;48119;53.218;6.576;2023-04-24T03:00:05;13.70;99.90
58554;DHT22;48119;53.218;6.576;2023-04-24T03:02:32;13.70;99.90
58554;DHT22;48119;53.218;6.576;2023-04-24T03:04:59;13.70;99.90
58554;DHT22;48119;53.218;6.576;2023-04-24T03:07:25;13.70;99.90
58554;DHT22;48119;53.218;6.576;2023-04-24T03:09:51;13.70;99.90
58554;DHT22;48119;53.218;6.576;2023-04-24T03:12:16;13.70;99.90
58554;DHT22;48119;53.218;6.576;2023-04-24T03:14:43;13.70;99.90
58554;DHT22;48119;53.218;6.576;2023-04-24T03:17:09;13.70;99.90
58554;DHT22;48119;53.218;6.576;2023-04-24T03:19:35;13.70;99.90
58554;DHT22;48119;53.218;6.576;2023-04-24T03:22:02;13.70;99.90
58554;DHT22;48119;53.218;6.576;2023-04-24T03:24:28;13.70;99.90
58554;DHT22;48119;53.218;6.576;2023-04-24T03:26:54;13.70;99.90
58554;DHT22;48119;53.218;6.576;2023-04-24T03:29:21;13.70;99.90
58554;DHT22;48119;53.218;6.576;2023-04-24T03:31:47;13.70;99.90
58554;DHT22;48119;53.218;6.576;2023-04-24T03:34:12;13.70;99.90
58554;DHT22;48119;53.218;6.576;2023-04-24T03:36:38;13.70;99.90
58554;DHT22;48119;53.218;6.576;2023-04-24T03:39:04;13.80;99.90
58554;DHT22;48119;53.218;6.576;2023-04-24T03:41:30;13.70;99.90
58554;DHT22;48119;53.218;6.576;2023-04-24T03:43:56;13.80;99.90
58554;DHT22;48119;53.218;6.576;2023-04-24T03:46:22;13.70;99.90
58554;DHT22;48119;53.218;6.576;2023-04-24T03:48:47;13.80;99.90
58554;DHT22;48119;53.218;6.576;2023-04-24T03:51:13;13.70;99.90
58554;DHT22;48119;53.218;6.576;2023-04-24T03:53:38;13.70;99.90
58554;DHT22;48119;53.218;6.576;2023-04-24T03:56:05;13.70;99.90
58554;DHT22;48119;53.218;6.576;2023-04-24T03:58:30;13.80;99.90
58554;DHT22;48119;53.218;6.576;2023-04-24T04:00:56;13.80;99.90
58554;DHT22;48119;53.218;6.576;2023-04-24T04:03:24;13.70;99.90
58554;DHT22;48119;53.218;6.576;2023-04-24T04:05:51;13.70;99.90
58554;DHT22;48119;53.218;6.576;2023-04-24T04:08:16;13.70;99.90
58554;DHT22;48119;53.218;6.576;2023-04-24T04:10:42;13.80;99.90
58554;DHT22;48119;53.218;6.576;2023-04-24T04:13:08;13.70;99.90
58554;DHT22;48119;53.218;6.576;2023-04-24T04:15:36;13.70;99.90
58554;DHT22;48119;53.218;6.576;2023-04-24T04:18:02;13.70;99.90
58554;DHT22;48119;53.218;6.576;2023-04-24T04:20:27;13.70;99.90
58554;DHT22;48119;53.218;6.576;2023-04-24T04:22:53;13.70;99.90
58554;DHT22;48119;53.218;6.576;2023-04-24T04:25:19;13.70;99.90
58554;DHT22;48119;53.218;6.576;2023-04-24T04:27:46;13.70;99.90
58554;DHT22;48119;53.218;6.576;2023-04-24T04:30:13;13.70;99.90
58554;DHT22;48119;53.218;6.576;2023-04-24T04:32:41;13.70;99.90
58554;DHT22;48119;53.218;6.576;2023-04-24T04:35:07;13.70;99.90
58554;DHT22;48119;53.218;6.576;2023-04-24T04:37:33;13.70;99.90
58554;DHT22;48119;53.218;6.576;2023-04-24T04:39:59;13.70;99.90
58554;DHT22;48119;53.218;6.576;2023-04-24T04:42:26;13.70;99.90
58554;DHT22;48119;53.218;6.576;2023-04-24T04:44:53;13.70;99.90
58554;DHT22;48119;53.218;6.576;2023-04-24T04:47:21;13.70;99.90
58554;DHT22;48119;53.218;6.576;2023-04-24T04:49:50;13.60;99.90
58554;DHT22;48119;53.218;6.576;2023-04-24T04:52:17;13.60;99.90
58554;DHT22;48119;53.218;6.576;2023-04-24T04:54:43;13.60;99.90
58554;DHT22;48119;53.218;6.576;2023-04-24T04:57:10;13.60;99.90
58554;DHT22;48119;53.218;6.576;2023-04-24T04:59:36;13.60;99.90
58554;DHT22;48119;53.218;6.576;2023-04-24T05:02:02;13.50;99.90
58554;DHT22;48119;53.218;6.576;2023-04-24T05:04:28;13.50;99.90
58554;DHT22;48119;53.218;6.576;2023-04-24T05:06:54;13.50;99.90
58554;DHT22;48119;53.218;6.576;2023-04-24T05:09:20;13.60;99.90
58554;DHT22;48119;53.218;6.576;2023-04-24T05:11:48;13.50;99.90
58554;DHT22;48119;53.218;6.576;2023-04-24T05:14:14;13.50;99.90
58554;DHT22;48119;53.218;6.576;2023-04-24T05:16:40;13.50;99.90
58554;DHT22;48119;53.218;6.576;2023-04-24T05:19:06;13.50;99.90
58554;DHT22;48119;53.218;6.576;2023-04-24T05:21:32;13.50;99.90
58554;DHT22;48119;53.218;6.576;2023-04-24T05:23:57;13.50;99.90
58554;DHT22;48119;53.218;6.576;2023-04-24T05:26:23;13.50;99.90
58554;DHT22;48119;53.218;6.576;2023-04-24T05:28:49;13.60;99.90
58554;DHT22;48119;53.218;6.576;2023-04-24T05:31:15;13.60;99.90
58554;DHT22;48119;53.218;6.576;2023-04-24T05:33:43;13.50;99.90
58554;DHT22;48119;53.218;6.576;2023-04-24T05:36:08;13.50;99.90
58554;DHT22;48119;53.218;6.576;2023-04-24T05:38:34;13.50;99.90
58554;DHT22;48119;53.218;6.576;2023-04-24T05:41:00;13.50;99.90
58554;DHT22;48119;53.218;6.576;2023-04-24T05:43:26;13.50;99.90
58554;DHT22;48119;53.218;6.576;2023-04-24T05:45:51;13.60;99.90
58554;DHT22;48119;53.218;6.576;2023-04-24T05:48:21;13.60;99.90
58554;DHT22;48119;53.218;6.576;2023-04-24T05:50:56;13.60;99.90
58554;DHT22;48119;53.218;6.576;2023-04-24T05:53:21;13.60;99.90
58554;DHT22;48119;53.218;6.576;2023-04-24T05:55:47;13.60;99.90
58554;DHT22;48119;53.218;6.576;2023-04-24T05:58:13;13.60;99.90
58554;DHT22;48119;53.218;6.576;2023-04-24T06:00:40;13.60;99.90
58554;DHT22;48119;53.218;6.576;2023-04-24T06:03:08;13.60;99.90
58554;DHT22;48119;53.218;6.576;2023-04-24T06:05:34;13.60;99.90
58554;DHT22;48119;53.218;6.576;2023-04-24T06:08:00;13.50;99.90
58554;DHT22;48119;53.218;6.576;2023-04-24T06:10:26;13.50;99.90
58554;DHT22;48119;53.218;6.576;2023-04-24T06:12:52;13.50;99.90
58554;DHT22;48119;53.218;6.576;2023-04-24T06:15:21;13.50;99.90
58554;DHT22;48119;53.218;6.576;2023-04-24T06:17:47;13.50;99.90
58554;DHT22;48119;53.218;6.576;2023-04-24T06:20:13;13.50;99.90
58554;DHT22;48119;53.218;6.576;2023-04-24T06:22:39;13.50;99.90
58554;DHT22;48119;53.218;6.576;2023-04-24T06:25:06;13.50;99.90
58554;DHT22;48119;53.218;6.576;2023-04-24T06:27:32;13.50;99.90
58554;DHT22;48119;53.218;6.576;2023-04-24T06:29:58;13.40;99.90
58554;DHT22;48119;53.218;6.576;2023-04-24T06:32:24;13.40;99.90
58554;DHT22;48119;53.218;6.576;2023-04-24T06:34:53;13.40;99.90
58554;DHT22;48119;53.218;6.576;2023-04-24T06:37:22;13.40;99.90
58554;DHT22;48119;53.218;6.576;2023-04-24T06:39:48;13.40;99.90
58554;DHT22;48119;53.218;6.576;2023-04-24T06:42:13;13.40;99.90
58554;DHT22;48119;53.218;6.576;2023-04-24T06:44:39;13.40;99.90
58554;DHT22;48119;53.218;6.576;2023-04-24T06:47:11;13.40;99.90
58554;DHT22;48119;53.218;6.576;2023-04-24T06:49:39;13.40;99.90
58554;DHT22;48119;53.218;6.576;2023-04-24T06:52:05;13.40;99.90
58554;DHT22;48119;53.218;6.576;2023-04-24T06:54:32;13.40;99.90
58554;DHT22;48119;53.218;6.576;2023-04-24T06:56:59;13.40;99.90
58554;DHT22;48119;53.218;6.576;2023-04-24T06:59:26;13.40;99.90
58554;DHT22;48119;53.218;6.576;2023-04-24T07:01:52;13.40;99.90
58554;DHT22;48119;53.218;6.576;2023-04-24T07:04:21;13.40;99.90
58554;DHT22;48119;53.218;6.576;2023-04-24T07:06:47;13.40;99.90
58554;DHT22;48119;53.218;6.576;2023-04-24T07:09:14;13.40;99.90
58554;DHT22;48119;53.218;6.576;2023-04-24T07:11:41;13.40;99.90
58554;DHT22;48119;53.218;6.576;2023-04-24T07:14:08;13.40;99.90
58554;DHT22;48119;53.218;6.576;2023-04-24T07:16:34;13.40;99.90
58554;DHT22;48119;53.218;6.576;2023-04-24T07:19:00;13.40;99.90
58554;DHT22;48119;53.218;6.576;2023-04-24T07:21:25;13.40;99.90
58554;DHT22;48119;53.218;6.576;2023-04-24T07:23:52;13.40;99.90
58554;DHT22;48119;53.218;6.576;2023-04-24T07:26:20;13.40;99.90
58554;DHT22;48119;53.218;6.576;2023-04-24T07:28:49;13.30;99.90
58554;DHT22;48119;53.218;6.576;2023-04-24T07:31:14;13.30;99.90
58554;DHT22;48119;53.218;6.576;2023-04-24T07:33:40;13.30;99.90
58554;DHT22;48119;53.218;6.576;2023-04-24T07:36:06;13.30;99.90
58554;DHT22;48119;53.218;6.576;2023-04-24T07:38:32;13.30;99.90
58554;DHT22;48119;53.218;6.576;2023-04-24T07:40:58;13.30;99.90
58554;DHT22;48119;53.218;6.576;2023-04-24T07:43:24;13.30;99.90
58554;DHT22;48119;53.218;6.576;2023-04-24T07:45:52;13.30;99.90
58554;DHT22;48119;53.218;6.576;2023-04-24T07:48:19;13.30;99.90
58554;DHT22;48119;53.218;6.576;2023-04-24T07:50:46;13.20;99.90
58554;DHT22;48119;53.218;6.576;2023-04-24T07:53:12;13.20;99.90
58554;DHT22;48119;53.218;6.576;2023-04-24T07:55:38;13.20;99.90
58554;DHT22;48119;53.218;6.576;2023-04-24T07:58:04;13.10;99.90
58554;DHT22;48119;53.218;6.576;2023-04-24T08:00:29;13.20;99.90
58554;DHT22;48119;53.218;6.576;2023-04-24T08:02:55;13.20;99.90
58554;DHT22;48119;53.218;6.576;2023-04-24T08:05:21;13.20;99.90
58554;DHT22;48119;53.218;6.576;2023-04-24T08:07:47;13.10;99.90
58554;DHT22;48119;53.218;6.576;2023-04-24T08:10:16;13.10;99.90
58554;DHT22;48119;53.218;6.576;2023-04-24T08:12:41;13.10;99.90
58554;DHT22;48119;53.218;6.576;2023-04-24T08:15:07;13.10;99.90
58554;DHT22;48119;53.218;6.576;2023-04-24T08:17:36;13.10;99.90
58554;DHT22;48119;53.218;6.576;2023-04-24T08:20:05;13.10;99.90
58554;DHT22;48119;53.218;6.576;2023-04-24T08:22:35;13.10;99.90
58554;DHT22;48119;53.218;6.576;2023-04-24T08:25:01;13.10;99.90
58554;DHT22;48119;53.218;6.576;2023-04-24T08:27:27;13.10;99.90
58554;DHT22;48119;53.218;6.576;2023-04-24T08:29:54;13.20;99.90
58554;DHT22;48119;53.218;6.576;2023-04-24T08:32:19;13.20;99.90
58554;DHT22;48119;53.218;6.576;2023-04-24T08:34:45;13.10;99.90
58554;DHT22;48119;53.218;6.576;2023-04-24T08:37:11;13.10;99.90
58554;DHT22;48119;53.218;6.576;2023-04-24T08:39:37;13.00;99.90
58554;DHT22;48119;53.218;6.576;2023-04-24T08:42:05;13.10;99.90
58554;DHT22;48119;53.218;6.576;2023-04-24T08:44:34;13.00;99.90
58554;DHT22;48119;53.218;6.576;2023-04-24T08:47:04;13.00;99.90
58554;DHT22;48119;53.218;6.576;2023-04-24T08:49:31;13.00;99.90
58554;DHT22;48119;53.218;6.576;2023-04-24T08:51:57;12.90;99.90
58554;DHT22;48119;53.218;6.576;2023-04-24T08:54:23;12.80;99.90
58554;DHT22;48119;53.218;6.576;2023-04-24T08:56:50;12.80;99.90
58554;DHT22;48119;53.218;6.576;2023-04-24T08:59:19;12.80;99.90
58554;DHT22;48119;53.218;6.576;2023-04-24T09:01:47;12.80;99.90
58554;DHT22;48119;53.218;6.576;2023-04-24T09:04:14;12.80;99.90
58554;DHT22;48119;53.218;6.576;2023-04-24T09:06:42;12.80;99.90
58554;DHT22;48119;53.218;6.576;2023-04-24T09:09:08;12.70;99.90
58554;DHT22;48119;53.218;6.576;2023-04-24T09:11:36;12.70;99.90
58554;DHT22;48119;53.218;6.576;2023-04-24T09:14:03;12.70;99.90
58554;DHT22;48119;53.218;6.576;2023-04-24T09:16:29;12.70;99.90
58554;DHT22;48119;53.218;6.576;2023-04-24T09:18:58;12.60;99.90
58554;DHT22;48119;53.218;6.576;2023-04-24T09:21:34;12.60;99.90
58554;DHT22;48119;53.218;6.576;2023-04-24T09:24:03;12.60;99.90
58554;DHT22;48119;53.218;6.576;2023-04-24T09:26:30;12.60;99.90
58554;DHT22;48119;53.218;6.576;2023-04-24T09:29:00;12.60;99.90
58554;DHT22;48119;53.218;6.576;2023-04-24T09:31:27;12.60;99.90
58554;DHT22;48119;53.218;6.576;2023-04-24T09:33:57;12.60;99.90
58554;DHT22;48119;53.218;6.576;2023-04-24T09:36:42;12.60;99.90
58554;DHT22;48119;53.218;6.576;2023-04-24T09:39:13;12.60;99.90
58554;DHT22;48119;53.218;6.576;2023-04-24T09:44:20;12.60;99.90
58554;DHT22;48119;53.218;6.576;2023-04-24T09:46:54;12.60;99.90
58554;DHT22;48119;53.218;6.576;2023-04-24T09:49:26;12.60;99.90
58554;DHT22;48119;53.218;6.576;2023-04-24T09:52:02;12.60;99.90
58554;DHT22;48119;53.218;6.576;2023-04-24T09:54:28;12.60;99.90
58554;DHT22;48119;53.218;6.576;2023-04-24T09:56:55;12.60;99.90
58554;DHT22;48119;53.218;6.576;2023-04-24T09:59:22;12.60;99.90
58554;DHT22;48119;53.218;6.576;2023-04-24T10:01:48;12.60;99.90
58554;DHT22;48119;53.218;6.576;2023-04-24T10:04:19;12.60;99.90
58554;DHT22;48119;53.218;6.576;2023-04-24T10:06:49;12.60;99.90
58554;DHT22;48119;53.218;6.576;2023-04-24T10:09:22;12.60;99.90
58554;DHT22;48119;53.218;6.576;2023-04-24T10:11:50;12.60;99.90
58554;DHT22;48119;53.218;6.576;2023-04-24T10:14:20;12.60;99.90
58554;DHT22;48119;53.218;6.576;2023-04-24T10:16:50;12.60;99.90
58554;DHT22;48119;53.218;6.576;2023-04-24T10:19:25;12.70;99.90
58554;DHT22;48119;53.218;6.576;2023-04-24T10:21:56;12.70;99.90
58554;DHT22;48119;53.218;6.576;2023-04-24T10:24:23;12.70;99.90
58554;DHT22;48119;53.218;6.576;2023-04-24T10:26:48;12.80;99.90
58554;DHT22;48119;53.218;6.576;2023-04-24T10:29:16;12.80;99.90
58554;DHT22;48119;53.218;6.576;2023-04-24T10:31:45;12.80;99.90
58554;DHT22;48119;53.218;6.576;2023-04-24T10:34:21;12.80;99.90
58554;DHT22;48119;53.218;6.576;2023-04-24T10:36:54;12.80;99.90
58554;DHT22;48119;53.218;6.576;2023-04-24T10:39:22;12.80;99.90
58554;DHT22;48119;53.218;6.576;2023-04-24T10:41:50;12.90;99.90
58554;DHT22;48119;53.218;6.576;2023-04-24T10:44:16;12.90;99.90
58554;DHT22;48119;53.218;6.576;2023-04-24T10:46:46;12.90;99.90
58554;DHT22;48119;53.218;6.576;2023-04-24T10:49:15;12.90;99.90
58554;DHT22;48119;53.218;6.576;2023-04-24T10:51:49;13.00;99.90
58554;DHT22;48119;53.218;6.576;2023-04-24T10:56:52;13.00;99.90
58554;DHT22;48119;53.218;6.576;2023-04-24T10:59:28;13.00;99.90
58554;DHT22;48119;53.218;6.576;2023-04-24T11:02:00;13.00;99.90
58554;DHT22;48119;53.218;6.576;2023-04-24T11:04:32;13.10;99.90
58554;DHT22;48119;53.218;6.576;2023-04-24T11:06:59;13.00;99.90
58554;DHT22;48119;53.218;6.576;2023-04-24T11:09:30;13.00;99.90
58554;DHT22;48119;53.218;6.576;2023-04-24T11:12:08;13.10;99.90
58554;DHT22;48119;53.218;6.576;2023-04-24T11:15:13;13.10;99.80
58554;DHT22;48119;53.218;6.576;2023-04-24T11:17:42;13.00;99.00
58554;DHT22;48119;53.218;6.576;2023-04-24T11:20:15;13.00;99.60
58554;DHT22;48119;53.218;6.576;2023-04-24T11:22:42;13.00;99.50
58554;DHT22;48119;53.218;6.576;2023-04-24T11:25:11;13.00;99.50
58554;DHT22;48119;53.218;6.576;2023-04-24T11:30:06;13.00;99.40
58554;DHT22;48119;53.218;6.576;2023-04-24T11:35:02;13.00;99.40
58554;DHT22;48119;53.218;6.576;2023-04-24T11:37:43;13.00;99.50
58554;DHT22;48119;53.218;6.576;2023-04-24T11:40:11;13.00;99.20
58554;DHT22;48119;53.218;6.576;2023-04-24T11:42:44;13.00;99.40
58554;DHT22;48119;53.218;6.576;2023-04-24T11:45:15;13.00;99.20
58554;DHT22;48119;53.218;6.576;2023-04-24T11:47:42;13.00;99.20
58554;DHT22;48119;53.218;6.576;2023-04-24T11:50:11;13.00;99.20
58554;DHT22;48119;53.218;6.576;2023-04-24T11:52:39;13.10;98.90
58554;DHT22;48119;53.218;6.576;2023-04-24T11:55:07;13.10;98.90
58554;DHT22;48119;53.218;6.576;2023-04-24T11:57:33;13.10;98.70
58554;DHT22;48119;53.218;6.576;2023-04-24T12:00:03;13.00;98.50
58554;DHT22;48119;53.218;6.576;2023-04-24T12:02:31;13.00;98.40
58554;DHT22;48119;53.218;6.576;2023-04-24T12:04:56;13.00;98.50
58554;DHT22;48119;53.218;6.576;2023-04-24T12:07:23;13.00;98.60
58554;DHT22;48119;53.218;6.576;2023-04-24T12:09:59;13.00;98.70
58554;DHT22;48119;53.218;6.576;2023-04-24T12:12:28;13.00;99.10
58554;DHT22;48119;53.218;6.576;2023-04-24T12:17:32;12.90;99.90
58554;DHT22;48119;53.218;6.576;2023-04-24T12:25:11;12.80;99.70
58554;DHT22;48119;53.218;6.576;2023-04-24T12:27:37;12.80;99.80
58554;DHT22;48119;53.218;6.576;2023-04-24T12:30:05;12.80;99.70
58554;DHT22;48119;53.218;6.576;2023-04-24T12:32:49;12.80;99.90
58554;DHT22;48119;53.218;6.576;2023-04-24T12:35:23;12.80;99.90
58554;DHT22;48119;53.218;6.576;2023-04-24T12:37:49;12.80;99.90
58554;DHT22;48119;53.218;6.576;2023-04-24T12:40:20;12.90;99.80
58554;DHT22;48119;53.218;6.576;2023-04-24T12:42:48;12.80;99.10
58554;DHT22;48119;53.218;6.576;2023-04-24T12:45:18;12.90;98.80
58554;DHT22;48119;53.218;6.576;2023-04-24T12:47:45;12.90;98.40
58554;DHT22;48119;53.218;6.576;2023-04-24T12:50:12;12.90;98.00
58554;DHT22;48119;53.218;6.576;2023-04-24T12:52:39;12.90;97.80
58554;DHT22;48119;53.218;6.576;2023-04-24T12:55:05;12.90;97.70
58554;DHT22;48119;53.218;6.576;2023-04-24T12:57:35;12.90;97.50
58554;DHT22;48119;53.218;6.576;2023-04-24T13:00:06;12.90;97.60
58554;DHT22;48119;53.218;6.576;2023-04-24T13:02:33;12.90;97.50
58554;DHT22;48119;53.218;6.576;2023-04-24T13:05:00;12.90;97.40
58554;DHT22;48119;53.218;6.576;2023-04-24T13:07:27;12.90;97.40
58554;DHT22;48119;53.218;6.576;2023-04-24T13:09:53;12.80;97.40
58554;DHT22;48119;53.218;6.576;2023-04-24T13:12:19;12.90;97.60
58554;DHT22;48119;53.218;6.576;2023-04-24T13:14:45;12.90;97.80
58554;DHT22;48119;53.218;6.576;2023-04-24T13:17:12;12.80;98.10
58554;DHT22;48119;53.218;6.576;2023-04-24T13:19:42;12.80;98.30
58554;DHT22;48119;53.218;6.576;2023-04-24T13:22:10;12.90;98.60
58554;DHT22;48119;53.218;6.576;2023-04-24T13:24:36;12.80;98.90
58554;DHT22;48119;53.218;6.576;2023-04-24T13:27:03;12.80;98.90
58554;DHT22;48119;53.218;6.576;2023-04-24T13:29:28;12.80;99.20
58554;DHT22;48119;53.218;6.576;2023-04-24T13:31:55;12.80;99.50
58554;DHT22;48119;53.218;6.576;2023-04-24T13:34:25;12.80;99.70
58554;DHT22;48119;53.218;6.576;2023-04-24T13:36:53;12.80;99.80
58554;DHT22;48119;53.218;6.576;2023-04-24T13:39:19;12.70;99.70
58554;DHT22;48119;53.218;6.576;2023-04-24T13:41:45;12.80;99.50
58554;DHT22;48119;53.218;6.576;2023-04-24T13:44:13;12.70;99.40
58554;DHT22;48119;53.218;6.576;2023-04-24T13:46:39;12.80;99.20
58554;DHT22;48119;53.218;6.576;2023-04-24T13:49:06;12.80;99.10
58554;DHT22;48119;53.218;6.576;2023-04-24T13:51:32;12.80;99.00
58554;DHT22;48119;53.218;6.576;2023-04-24T13:53:58;12.80;98.50
58554;DHT22;48119;53.218;6.576;2023-04-24T13:56:26;12.80;98.30
58554;DHT22;48119;53.218;6.576;2023-04-24T13:58:52;12.80;98.10
58554;DHT22;48119;53.218;6.576;2023-04-24T14:01:19;12.80;98.10
58554;DHT22;48119;53.218;6.576;2023-04-24T14:03:50;12.80;98.10
58554;DHT22;48119;53.218;6.576;2023-04-24T14:06:16;12.80;98.30
58554;DHT22;48119;53.218;6.576;2023-04-24T14:08:41;12.80;98.60
58554;DHT22;48119;53.218;6.576;2023-04-24T14:11:07;12.80;99.50
58554;DHT22;48119;53.218;6.576;2023-04-24T14:13:33;12.70;99.90
58554;DHT22;48119;53.218;6.576;2023-04-24T14:16:00;12.70;99.90
58554;DHT22;48119;53.218;6.576;2023-04-24T14:18:25;12.60;99.90
58554;DHT22;48119;53.218;6.576;2023-04-24T14:20:52;12.60;99.90
58554;DHT22;48119;53.218;6.576;2023-04-24T14:23:18;12.60;99.90
58554;DHT22;48119;53.218;6.576;2023-04-24T14:25:44;12.60;99.90
58554;DHT22;48119;53.218;6.576;2023-04-24T14:28:10;12.60;99.90
58554;DHT22;48119;53.218;6.576;2023-04-24T14:30:35;12.50;99.90
58554;DHT22;48119;53.218;6.576;2023-04-24T14:33:03;12.60;99.90
58554;DHT22;48119;53.218;6.576;2023-04-24T14:35:29;12.50;99.90
58554;DHT22;48119;53.218;6.576;2023-04-24T14:37:56;12.50;99.90
58554;DHT22;48119;53.218;6.576;2023-04-24T14:40:22;12.50;99.90
58554;DHT22;48119;53.218;6.576;2023-04-24T14:42:48;12.50;99.90
58554;DHT22;48119;53.218;6.576;2023-04-24T14:45:17;12.60;99.90
58554;DHT22;48119;53.218;6.576;2023-04-24T14:47:43;12.50;99.90
58554;DHT22;48119;53.218;6.576;2023-04-24T14:50:09;12.50;99.90
58554;DHT22;48119;53.218;6.576;2023-04-24T14:52:38;12.50;99.90
58554;DHT22;48119;53.218;6.576;2023-04-24T14:55:04;12.50;99.90
58554;DHT22;48119;53.218;6.576;2023-04-24T14:57:33;12.60;99.90
58554;DHT22;48119;53.218;6.576;2023-04-24T15:00:02;12.60;99.90
58554;DHT22;48119;53.218;6.576;2023-04-24T15:02:33;12.60;99.90
58554;DHT22;48119;53.218;6.576;2023-04-24T15:04:59;12.60;99.90
58554;DHT22;48119;53.218;6.576;2023-04-24T15:07:26;12.60;99.90
58554;DHT22;48119;53.218;6.576;2023-04-24T15:10:02;12.60;99.90
58554;DHT22;48119;53.218;6.576;2023-04-24T15:12:28;12.60;99.90
58554;DHT22;48119;53.218;6.576;2023-04-24T15:14:55;12.50;99.90
58554;DHT22;48119;53.218;6.576;2023-04-24T15:17:20;12.50;99.90
58554;DHT22;48119;53.218;6.576;2023-04-24T15:19:46;12.50;99.90
58554;DHT22;48119;53.218;6.576;2023-04-24T15:22:13;12.50;99.90
58554;DHT22;48119;53.218;6.576;2023-04-24T15:24:39;12.50;99.90
58554;DHT22;48119;53.218;6.576;2023-04-24T15:27:05;12.50;99.90
58554;DHT22;48119;53.218;6.576;2023-04-24T15:29:31;12.50;99.90
58554;DHT22;48119;53.218;6.576;2023-04-24T15:31:57;12.50;99.90
58554;DHT22;48119;53.218;6.576;2023-04-24T15:34:23;12.50;99.90
58554;DHT22;48119;53.218;6.576;2023-04-24T15:36:52;12.50;99.90
58554;DHT22;48119;53.218;6.576;2023-04-24T15:39:19;12.50;99.90
58554;DHT22;48119;53.218;6.576;2023-04-24T15:41:47;12.50;99.90
58554;DHT22;48119;53.218;6.576;2023-04-24T15:44:13;12.50;99.90
58554;DHT22;48119;53.218;6.576;2023-04-24T15:46:39;12.50;99.90
58554;DHT22;48119;53.218;6.576;2023-04-24T15:49:05;12.50;99.90